createdAt,value
2023-08-17T00:01:19.358Z,39.69
2023-08-17T00:03:48.689Z,39.56
2023-08-17T00:06:17.994Z,39.76
2023-08-17T00:08:47.600Z,39.88
2023-08-17T00:11:16.916Z,40.08
2023-08-17T00:13:46.995Z,39.75
2023-08-17T00:16:16.454Z,40.27
2023-08-17T00:18:45.870Z,40.34
2023-08-17T00:21:14.856Z,40.34
2023-08-17T00:23:44.156Z,40.33
2023-08-17T00:26:13.463Z,40.80
2023-08-17T00:28:42.714Z,40.79
2023-08-17T00:31:12.790Z,40.68
2023-08-17T00:33:42.230Z,40.50
2023-08-17T00:36:11.604Z,40.47
2023-08-17T00:38:40.861Z,40.54
2023-08-17T00:41:10.665Z,40.88
2023-08-17T00:43:40.647Z,40.69
2023-08-17T00:46:10.724Z,40.80
2023-08-17T00:48:40.468Z,40.46
2023-08-17T00:51:09.918Z,40.85
2023-08-17T00:53:39.373Z,40.63
2023-08-17T00:56:09.458Z,40.80
2023-08-17T00:58:39.177Z,40.28
2023-08-17T01:01:09.026Z,40.41
2023-08-17T01:03:39.027Z,40.59
2023-08-17T01:06:08.502Z,39.81
2023-08-17T01:08:40.119Z,39.83
2023-08-17T01:11:28.783Z,40.08
2023-08-17T01:14:07.457Z,40.30
2023-08-17T01:16:53.304Z,40.23
2023-08-17T01:19:30.418Z,40.07
2023-08-17T01:22:08.445Z,40.36
2023-08-17T01:24:38.192Z,40.55
2023-08-17T01:27:07.970Z,40.40
2023-08-17T01:29:37.428Z,41.16
2023-08-17T01:32:21.862Z,41.08
2023-08-17T01:35:02.463Z,41.18
2023-08-17T01:37:35.208Z,41.09
2023-08-17T01:40:05.300Z,41.84
2023-08-17T01:42:35.946Z,41.73
2023-08-17T01:45:05.642Z,41.55
2023-08-17T01:47:35.515Z,42.00
2023-08-17T01:50:04.938Z,41.79
2023-08-17T01:52:34.631Z,41.66
2023-08-17T01:55:04.105Z,41.72
2023-08-17T01:57:33.785Z,42.28
2023-08-17T02:00:04.014Z,42.00
2023-08-17T02:02:33.792Z,42.09
2023-08-17T02:05:03.455Z,42.68
2023-08-17T02:07:32.937Z,42.54
2023-08-17T02:10:02.385Z,42.62
2023-08-17T02:12:32.184Z,42.94
2023-08-17T02:15:02.128Z,42.81
2023-08-17T02:17:31.744Z,42.77
2023-08-17T02:20:01.462Z,43.06
2023-08-17T02:22:31.133Z,43.28
2023-08-17T02:25:00.966Z,43.19
2023-08-17T02:27:33.540Z,43.47
2023-08-17T02:30:03.339Z,43.65
2023-08-17T02:32:33.459Z,43.86
2023-08-17T02:35:02.839Z,43.80
2023-08-17T02:37:32.622Z,44.25
2023-08-17T02:40:02.352Z,44.27
2023-08-17T02:42:31.850Z,44.34
2023-08-17T02:45:01.570Z,44.38
2023-08-17T02:47:31.399Z,44.59
2023-08-17T02:50:01.458Z,44.71
2023-08-17T02:52:31.221Z,44.80
2023-08-17T02:55:00.648Z,44.81
2023-08-17T02:57:30.418Z,45.18
2023-08-17T02:59:59.376Z,45.30
2023-08-17T03:02:29.384Z,45.46
2023-08-17T03:04:59.305Z,45.57
2023-08-17T03:07:28.896Z,45.83
2023-08-17T03:09:58.253Z,45.90
2023-08-17T03:12:27.934Z,46.01
2023-08-17T03:14:57.470Z,45.96
2023-08-17T03:17:27.509Z,46.02
2023-08-17T03:20:05.910Z,46.02
2023-08-17T03:22:36.325Z,46.26
2023-08-17T03:25:06.287Z,46.08
2023-08-17T03:27:35.606Z,46.18
2023-08-17T03:30:05.304Z,46.41
2023-08-17T03:32:34.758Z,46.38
2023-08-17T03:35:04.368Z,46.31
2023-08-17T03:37:33.785Z,46.35
2023-08-17T03:40:02.902Z,46.30
2023-08-17T03:42:32.168Z,46.54
2023-08-17T03:45:01.556Z,46.63
2023-08-17T03:47:31.081Z,46.79
2023-08-17T03:50:00.783Z,46.51
2023-08-17T03:52:30.070Z,46.97
2023-08-17T03:54:59.678Z,47.27
2023-08-17T03:57:30.173Z,47.37
2023-08-17T04:00:00.692Z,47.23
2023-08-17T04:02:30.433Z,47.56
2023-08-17T04:05:00.031Z,47.48
2023-08-17T04:07:29.799Z,47.70
2023-08-17T04:09:59.815Z,47.80
2023-08-17T04:12:29.249Z,48.09
2023-08-17T04:14:58.742Z,47.92
2023-08-17T04:17:28.774Z,47.95
2023-08-17T04:19:58.816Z,48.16
2023-08-17T04:22:28.261Z,48.77
2023-08-17T04:24:58.642Z,48.55
2023-08-17T04:27:28.360Z,48.77
2023-08-17T04:29:58.229Z,48.63
2023-08-17T04:32:27.987Z,48.62
2023-08-17T04:34:57.642Z,48.80
2023-08-17T04:37:27.496Z,48.40
2023-08-17T04:39:57.308Z,48.55
2023-08-17T04:42:27.710Z,48.43
2023-08-17T04:44:57.319Z,48.83
2023-08-17T04:47:27.467Z,49.01
2023-08-17T04:49:57.510Z,48.92
2023-08-17T04:52:27.357Z,48.79
2023-08-17T04:54:57.023Z,49.06
2023-08-17T04:57:27.162Z,48.95
2023-08-17T04:59:57.478Z,48.96
2023-08-17T05:02:27.308Z,48.76
2023-08-17T05:04:55.994Z,48.97
2023-08-17T05:07:25.558Z,49.07
2023-08-17T05:09:55.126Z,48.98
2023-08-17T05:12:23.854Z,49.20
2023-08-17T05:14:52.850Z,49.28
2023-08-17T05:17:22.594Z,49.39
2023-08-17T05:19:52.140Z,49.67
2023-08-17T05:22:21.477Z,50.23
2023-08-17T05:24:51.380Z,50.15
2023-08-17T05:27:21.141Z,50.44
2023-08-17T05:29:50.877Z,50.57
2023-08-17T05:32:20.638Z,50.76
2023-08-17T05:34:50.879Z,51.28
2023-08-17T05:37:20.438Z,51.38
2023-08-17T05:39:50.218Z,51.56
2023-08-17T05:42:19.970Z,52.04
2023-08-17T05:44:49.752Z,52.10
2023-08-17T05:47:20.649Z,52.50
2023-08-17T05:49:49.741Z,52.88
2023-08-17T05:52:19.212Z,52.81
2023-08-17T05:54:47.844Z,53.01
2023-08-17T05:57:16.832Z,53.62
2023-08-17T05:59:46.041Z,53.74
2023-08-17T06:02:15.030Z,53.80
2023-08-17T06:04:44.211Z,53.71
2023-08-17T06:07:13.737Z,54.01
2023-08-17T06:09:43.427Z,54.41
2023-08-17T06:12:12.960Z,54.59
2023-08-17T06:14:43.000Z,54.87
2023-08-17T06:17:12.796Z,54.85
2023-08-17T06:19:42.570Z,54.48
2023-08-17T06:22:12.204Z,54.64
2023-08-17T06:24:42.072Z,54.77
2023-08-17T06:27:11.801Z,54.43
2023-08-17T06:29:41.496Z,54.51
2023-08-17T06:32:11.323Z,54.48
2023-08-17T06:34:40.825Z,54.77
2023-08-17T06:37:09.426Z,55.25
2023-08-17T06:39:39.052Z,55.08
2023-08-17T06:42:08.351Z,55.00
2023-08-17T06:44:37.280Z,55.18
2023-08-17T06:47:06.391Z,55.16
2023-08-17T06:49:35.692Z,55.26
2023-08-17T06:52:04.998Z,54.95
2023-08-17T06:54:34.655Z,55.19
2023-08-17T06:57:04.651Z,55.47
2023-08-17T06:59:35.656Z,55.21
2023-08-17T07:02:04.951Z,55.54
2023-08-17T07:04:35.063Z,55.41
2023-08-17T07:07:04.172Z,55.67
2023-08-17T07:09:33.526Z,56.00
2023-08-17T07:12:03.020Z,55.63
2023-08-17T07:14:32.749Z,56.12
2023-08-17T07:17:02.524Z,55.98
2023-08-17T07:19:57.771Z,55.91
2023-08-17T07:22:21.585Z,56.02
2023-08-17T07:24:50.982Z,56.44
2023-08-17T07:27:20.526Z,56.48
2023-08-17T07:29:49.891Z,56.46
2023-08-17T07:32:18.881Z,56.44
2023-08-17T07:34:47.518Z,56.73
2023-08-17T07:37:16.891Z,56.72
2023-08-17T07:39:46.504Z,57.11
2023-08-17T07:42:16.182Z,56.85
2023-08-17T07:44:46.237Z,56.88
2023-08-17T07:47:15.935Z,57.24
2023-08-17T07:49:46.976Z,57.23
2023-08-17T07:52:16.811Z,57.55
2023-08-17T07:54:46.406Z,57.47
2023-08-17T07:57:15.636Z,57.58
2023-08-17T07:59:45.662Z,57.44
2023-08-17T08:02:15.541Z,57.74
2023-08-17T08:04:44.866Z,57.71
2023-08-17T08:07:14.409Z,58.03
2023-08-17T08:09:43.663Z,57.94
2023-08-17T08:12:13.594Z,57.93
2023-08-17T08:14:42.767Z,58.13
2023-08-17T08:17:12.162Z,58.43
2023-08-17T08:19:42.183Z,58.33
2023-08-17T08:22:11.699Z,58.27
2023-08-17T08:24:45.232Z,58.27
2023-08-17T08:27:15.056Z,58.56
2023-08-17T08:29:44.793Z,58.53
2023-08-17T08:32:14.466Z,58.51
2023-08-17T08:34:44.334Z,58.64
2023-08-17T08:37:13.727Z,58.80
2023-08-17T08:39:56.985Z,59.14
2023-08-17T08:42:28.903Z,58.89
2023-08-17T08:44:59.314Z,59.35
2023-08-17T08:47:30.096Z,59.18
2023-08-17T08:50:05.234Z,59.30
2023-08-17T08:52:39.466Z,59.51
2023-08-17T08:55:22.068Z,59.70
2023-08-17T08:57:53.075Z,59.48
2023-08-17T09:00:23.536Z,59.65
2023-08-17T09:02:53.649Z,59.82
2023-08-17T09:05:25.584Z,60.08
2023-08-17T09:07:55.517Z,60.22
2023-08-17T09:10:25.152Z,60.17
2023-08-17T09:12:54.886Z,60.34
2023-08-17T09:15:24.868Z,60.41
2023-08-17T09:17:54.776Z,60.33
2023-08-17T09:20:48.359Z,60.66
2023-08-17T09:23:22.409Z,60.59
2023-08-17T09:28:34.715Z,60.85
2023-08-17T09:31:08.691Z,60.92
2023-08-17T09:33:38.382Z,61.13
2023-08-17T09:36:08.430Z,61.00
2023-08-17T09:38:37.913Z,61.29
2023-08-17T09:41:09.312Z,61.26
2023-08-17T09:43:39.562Z,61.38
2023-08-17T09:46:10.131Z,61.88
2023-08-17T09:48:39.805Z,61.67
2023-08-17T09:51:09.892Z,61.76
2023-08-17T09:53:42.185Z,61.92
2023-08-17T09:58:46.452Z,62.40
2023-08-17T10:01:16.647Z,62.15
2023-08-17T10:03:52.703Z,62.42
2023-08-17T10:06:29.584Z,62.47
2023-08-17T10:09:01.629Z,62.74
2023-08-17T10:11:36.453Z,62.69
2023-08-17T10:14:15.063Z,62.97
2023-08-17T10:16:57.392Z,63.03
2023-08-17T10:19:41.479Z,63.04
2023-08-17T10:22:23.208Z,63.26
2023-08-17T10:24:54.058Z,63.29
2023-08-17T10:27:23.984Z,63.23
2023-08-17T10:29:55.632Z,63.48
2023-08-17T10:32:26.945Z,63.59
2023-08-17T10:34:58.047Z,63.68
2023-08-17T10:37:27.337Z,63.54
2023-08-17T10:39:56.969Z,63.74
2023-08-17T10:42:37.914Z,63.60
2023-08-17T10:45:30.248Z,63.70
2023-08-17T10:48:12.674Z,63.81
2023-08-17T10:50:43.426Z,63.74
2023-08-17T10:53:15.351Z,64.08
2023-08-17T10:55:52.685Z,64.15
2023-08-17T10:58:21.824Z,64.43
2023-08-17T11:00:56.464Z,64.55
2023-08-17T11:05:58.825Z,64.77
2023-08-17T11:08:43.327Z,64.92
2023-08-17T11:11:15.286Z,65.35
2023-08-17T11:13:46.340Z,65.01
2023-08-17T11:16:18.474Z,65.09
2023-08-17T11:18:54.821Z,65.40
2023-08-17T11:21:23.474Z,65.82
2023-08-17T11:23:52.223Z,65.98
2023-08-17T11:26:21.724Z,66.16
2023-08-17T11:28:50.348Z,65.97
2023-08-17T11:31:18.899Z,66.06
2023-08-17T11:33:48.913Z,66.22
2023-08-17T11:36:17.572Z,66.26
2023-08-17T11:38:46.365Z,66.18
2023-08-17T11:41:19.300Z,66.22
2023-08-17T11:43:49.269Z,66.23
2023-08-17T11:46:19.049Z,66.20
2023-08-17T11:48:48.381Z,66.22
2023-08-17T11:51:17.061Z,66.47
2023-08-17T11:53:49.237Z,66.57
2023-08-17T11:56:19.309Z,66.62
2023-08-17T11:58:51.049Z,66.79
2023-08-17T12:01:19.836Z,66.86
2023-08-17T12:03:51.163Z,67.09
2023-08-17T12:06:19.883Z,67.09
2023-08-17T12:08:50.074Z,66.97
2023-08-17T12:11:22.426Z,67.02
2023-08-17T12:13:54.952Z,67.10
2023-08-17T12:16:25.336Z,67.24
2023-08-17T12:18:55.062Z,67.32
2023-08-17T12:21:28.253Z,67.45
2023-08-17T12:23:56.789Z,67.44
2023-08-17T12:26:25.467Z,67.47
2023-08-17T12:28:54.494Z,67.38
2023-08-17T12:31:26.001Z,67.48
2023-08-17T12:33:54.862Z,67.72
2023-08-17T12:36:23.621Z,67.48
2023-08-17T12:38:52.155Z,67.59
2023-08-17T12:41:22.314Z,67.64
2023-08-17T12:43:51.163Z,67.84
2023-08-17T12:46:22.209Z,68.07
2023-08-17T12:48:52.020Z,67.81
2023-08-17T12:51:21.433Z,67.83
2023-08-17T12:53:50.863Z,68.07
2023-08-17T12:56:19.693Z,68.28
2023-08-17T12:58:48.263Z,68.12
2023-08-17T13:01:17.010Z,68.36
2023-08-17T13:03:45.499Z,68.51
2023-08-17T13:06:13.946Z,68.41
2023-08-17T13:08:42.457Z,68.34
2023-08-17T13:11:11.431Z,68.58
2023-08-17T13:13:39.996Z,68.50
2023-08-17T13:16:08.587Z,68.46
2023-08-17T13:18:37.109Z,68.67
2023-08-17T13:21:05.912Z,68.60
2023-08-17T13:23:34.729Z,68.56
2023-08-17T13:26:03.329Z,68.60
2023-08-17T13:28:31.856Z,68.55
2023-08-17T13:31:10.712Z,68.58
2023-08-17T13:33:46.771Z,68.62
2023-08-17T13:36:15.406Z,68.61
2023-08-17T13:38:45.175Z,68.78
2023-08-17T13:41:14.341Z,68.71
2023-08-17T13:43:43.294Z,68.45
2023-08-17T13:46:11.841Z,68.88
2023-08-17T13:48:41.585Z,68.82
2023-08-17T13:51:10.195Z,68.61
2023-08-17T13:53:38.895Z,68.86
2023-08-17T13:56:07.386Z,68.80
2023-08-17T13:58:35.928Z,69.04
2023-08-17T14:01:04.622Z,69.01
2023-08-17T14:03:33.204Z,68.99
2023-08-17T14:06:01.869Z,68.94
2023-08-17T14:08:30.424Z,68.91
2023-08-17T14:10:59.290Z,69.00
2023-08-17T14:13:28.444Z,68.84
2023-08-17T14:16:00.214Z,68.97
2023-08-17T14:18:29.602Z,68.87
2023-08-17T14:20:59.360Z,68.88
2023-08-17T14:23:28.849Z,69.06
2023-08-17T14:25:58.192Z,69.07
2023-08-17T14:28:29.280Z,69.09
2023-08-17T14:30:59.029Z,69.08
2023-08-17T14:33:28.793Z,69.03
2023-08-17T14:35:58.219Z,68.91
2023-08-17T14:38:31.688Z,68.95
2023-08-17T14:41:01.913Z,69.00
2023-08-17T14:43:31.671Z,68.94
2023-08-17T14:46:01.158Z,69.02
2023-08-17T14:48:31.103Z,68.66
2023-08-17T14:51:00.683Z,68.70
2023-08-17T14:53:30.404Z,68.43
2023-08-17T14:55:59.143Z,68.34
2023-08-17T14:58:28.278Z,68.30
2023-08-17T15:00:57.131Z,68.17
2023-08-17T15:03:26.919Z,67.88
2023-08-17T15:05:56.483Z,67.75
2023-08-17T15:08:25.958Z,67.63
2023-08-17T15:10:55.836Z,67.44
2023-08-17T15:13:25.293Z,67.37
2023-08-17T15:15:54.195Z,67.30
2023-08-17T15:18:24.652Z,67.31
2023-08-17T15:20:53.617Z,67.30
2023-08-17T15:23:22.664Z,67.15
2023-08-17T15:25:52.198Z,67.13
2023-08-17T15:28:21.865Z,67.28
2023-08-17T15:31:04.167Z,67.45
2023-08-17T15:33:33.864Z,67.63
2023-08-17T15:36:03.356Z,67.61
2023-08-17T15:38:33.070Z,67.44
2023-08-17T15:41:02.901Z,67.30
2023-08-17T15:43:32.573Z,67.25
2023-08-17T15:46:02.178Z,67.00
2023-08-17T15:48:32.118Z,66.90
2023-08-17T15:51:01.905Z,66.60
2023-08-17T15:53:31.750Z,66.52
2023-08-17T15:56:01.693Z,66.38
2023-08-17T15:58:31.152Z,66.17
2023-08-17T16:01:00.985Z,66.07
2023-08-17T16:03:29.968Z,65.83
2023-08-17T16:05:59.762Z,65.96
2023-08-17T16:08:47.526Z,65.68
2023-08-17T16:11:18.860Z,65.48
2023-08-17T16:13:48.578Z,65.58
2023-08-17T16:16:17.692Z,65.53
2023-08-17T16:18:47.073Z,65.21
2023-08-17T16:21:16.622Z,64.98
2023-08-17T16:23:45.851Z,65.22
2023-08-17T16:26:16.134Z,64.92
2023-08-17T16:31:20.883Z,64.78
2023-08-17T16:33:50.487Z,64.74
2023-08-17T16:36:20.363Z,64.08
2023-08-17T16:41:24.573Z,64.34
2023-08-17T16:43:54.107Z,64.06
2023-08-17T16:46:24.652Z,64.01
2023-08-17T16:48:54.142Z,63.77
2023-08-17T16:51:23.951Z,63.68
2023-08-17T16:53:53.747Z,63.44
2023-08-17T16:56:24.123Z,63.33
2023-08-17T16:58:53.945Z,63.64
2023-08-17T17:01:23.635Z,63.28
2023-08-17T17:03:53.396Z,63.05
2023-08-17T17:06:23.862Z,62.89
2023-08-17T17:08:52.949Z,62.75
2023-08-17T17:11:23.066Z,62.76
2023-08-17T17:13:52.120Z,62.51
2023-08-17T17:16:23.100Z,62.31
2023-08-17T17:18:53.564Z,62.26
2023-08-17T17:21:22.877Z,61.89
2023-08-17T17:23:52.129Z,61.57
2023-08-17T17:26:23.216Z,61.54
2023-08-17T17:28:52.358Z,61.44
2023-08-17T17:31:21.225Z,61.65
2023-08-17T17:33:50.556Z,61.20
2023-08-17T17:36:20.331Z,61.52
2023-08-17T17:38:49.644Z,60.93
2023-08-17T17:41:19.434Z,60.84
2023-08-17T17:43:49.731Z,60.67
2023-08-17T17:46:21.585Z,60.33
2023-08-17T17:48:50.941Z,60.13
2023-08-17T17:51:19.998Z,60.13
2023-08-17T17:53:49.258Z,59.82
2023-08-17T17:56:18.394Z,59.76
2023-08-17T17:58:47.201Z,59.86
2023-08-17T18:01:17.003Z,59.26
2023-08-17T18:03:47.986Z,59.13
2023-08-17T18:06:18.049Z,58.84
2023-08-17T18:08:47.504Z,58.86
2023-08-17T18:11:16.735Z,58.46
2023-08-17T18:13:46.036Z,58.15
2023-08-17T18:16:15.106Z,57.87
2023-08-17T18:18:44.221Z,57.91
2023-08-17T18:21:13.404Z,57.62
2023-08-17T18:23:42.801Z,57.51
2023-08-17T18:26:12.146Z,57.17
2023-08-17T18:28:41.454Z,57.01
2023-08-17T18:31:11.562Z,56.93
2023-08-17T18:33:40.288Z,56.55
2023-08-17T18:36:10.035Z,56.14
2023-08-17T18:38:39.783Z,56.25
2023-08-17T18:41:12.789Z,56.05
2023-08-17T18:43:42.138Z,55.48
2023-08-17T18:46:12.029Z,55.76
2023-08-17T18:48:41.734Z,54.94
2023-08-17T18:51:11.520Z,55.08
2023-08-17T18:53:40.986Z,54.78
2023-08-17T18:56:10.363Z,53.83
2023-08-17T18:58:39.533Z,53.87
2023-08-17T19:01:08.054Z,53.52
2023-08-17T19:03:36.785Z,53.29
2023-08-17T19:06:05.680Z,53.56
2023-08-17T19:08:34.599Z,52.82
2023-08-17T19:11:03.290Z,52.66
2023-08-17T19:13:32.387Z,52.64
2023-08-17T19:16:01.212Z,52.69
2023-08-17T19:18:30.070Z,52.23
2023-08-17T19:20:58.901Z,52.01
2023-08-17T19:23:27.719Z,51.75
2023-08-17T19:25:56.903Z,51.23
2023-08-17T19:28:25.646Z,50.72
2023-08-17T19:30:54.412Z,50.38
2023-08-17T19:33:23.169Z,50.62
2023-08-17T19:35:52.184Z,50.52
2023-08-17T19:38:20.916Z,50.02
2023-08-17T19:40:49.746Z,49.73
2023-08-17T19:43:18.513Z,49.44
2023-08-17T19:45:47.570Z,49.40
2023-08-17T19:48:16.310Z,49.17
2023-08-17T19:50:45.641Z,48.93
2023-08-17T19:53:15.053Z,48.72
2023-08-17T19:55:44.516Z,48.48
2023-08-17T19:58:15.188Z,48.20
2023-08-17T20:00:44.692Z,48.00
2023-08-17T20:03:14.478Z,47.49
2023-08-17T20:05:44.028Z,46.96
2023-08-17T20:08:13.819Z,47.19
2023-08-17T20:10:43.839Z,47.16
2023-08-17T20:13:13.434Z,46.72
2023-08-17T20:15:43.090Z,46.20
2023-08-17T20:18:13.956Z,46.16
2023-08-17T20:20:57.898Z,46.06
2023-08-17T20:23:27.835Z,45.32
2023-08-17T20:25:57.923Z,45.30
2023-08-17T20:28:28.774Z,45.43
2023-08-17T20:31:00.614Z,44.49
2023-08-17T20:33:30.421Z,44.50
2023-08-17T20:35:59.912Z,44.58
2023-08-17T20:38:29.146Z,44.42
2023-08-17T20:40:58.927Z,44.16
2023-08-17T20:43:28.692Z,44.26
2023-08-17T20:45:58.255Z,43.74
2023-08-17T20:48:27.195Z,43.58
2023-08-17T20:50:57.568Z,43.08
2023-08-17T20:53:29.982Z,43.49
2023-08-17T20:55:59.773Z,43.09
2023-08-17T20:58:28.538Z,42.87
2023-08-17T21:00:57.339Z,42.76
2023-08-17T21:03:26.161Z,42.92
2023-08-17T21:05:55.274Z,42.19
2023-08-17T21:08:23.990Z,41.83
2023-08-17T21:10:52.766Z,41.71
2023-08-17T21:13:22.100Z,41.53
2023-08-17T21:15:50.857Z,41.20
2023-08-17T21:18:21.336Z,41.34
2023-08-17T21:20:50.034Z,41.15
2023-08-17T21:23:18.589Z,41.39
2023-08-17T21:25:56.630Z,40.83
2023-08-17T21:28:25.302Z,40.44
2023-08-17T21:30:54.047Z,40.48
2023-08-17T21:33:22.635Z,40.75
2023-08-17T21:35:55.520Z,40.10
2023-08-17T21:38:24.087Z,40.55
2023-08-17T21:41:00.753Z,39.99
2023-08-17T21:43:33.074Z,40.47
2023-08-17T21:46:02.858Z,40.10
2023-08-17T21:48:31.466Z,40.21
2023-08-17T21:51:00.064Z,39.55
2023-08-17T21:53:28.680Z,39.13
2023-08-17T21:55:57.277Z,38.79
2023-08-17T21:58:25.876Z,39.36
2023-08-17T22:00:54.523Z,37.83
2023-08-17T22:03:23.237Z,38.71
2023-08-17T22:05:52.012Z,38.73
2023-08-17T22:08:20.711Z,39.38
2023-08-17T22:10:50.720Z,39.12
2023-08-17T22:13:19.329Z,39.14
2023-08-17T22:15:48.021Z,39.21
2023-08-17T22:18:16.925Z,39.47
2023-08-17T22:20:45.991Z,39.37
2023-08-17T22:23:15.185Z,39.11
2023-08-17T22:25:43.740Z,38.76
2023-08-17T22:28:12.315Z,39.30
2023-08-17T22:30:40.987Z,39.79
2023-08-17T22:33:09.645Z,39.49
2023-08-17T22:35:38.170Z,39.95
2023-08-17T22:38:06.897Z,39.85
2023-08-17T22:40:35.468Z,39.59
2023-08-17T22:43:04.122Z,39.96
2023-08-17T22:45:32.622Z,38.62
2023-08-17T22:48:01.744Z,39.55
2023-08-17T22:50:30.269Z,40.00
2023-08-17T22:52:59.156Z,39.90
2023-08-17T22:55:27.664Z,40.57
2023-08-17T22:57:56.406Z,40.89
2023-08-17T23:00:24.920Z,41.64
2023-08-17T23:02:53.613Z,42.12
2023-08-17T23:05:22.213Z,42.11
2023-08-17T23:07:50.828Z,42.47
2023-08-17T23:10:19.382Z,43.15
2023-08-17T23:12:48.302Z,43.79
2023-08-17T23:15:16.878Z,43.69
2023-08-17T23:17:46.092Z,44.12
2023-08-17T23:20:15.179Z,43.71
2023-08-17T23:22:44.111Z,44.59
2023-08-17T23:25:12.983Z,45.07
2023-08-17T23:27:42.062Z,44.86
2023-08-17T23:30:12.224Z,45.07
2023-08-17T23:32:40.945Z,45.26
2023-08-17T23:35:10.101Z,45.38
2023-08-17T23:37:38.742Z,46.21
2023-08-17T23:40:09.255Z,46.29
2023-08-17T23:42:37.823Z,46.48
2023-08-17T23:45:07.897Z,46.86
2023-08-17T23:47:36.885Z,47.18
2023-08-17T23:50:07.105Z,47.24
2023-08-17T23:52:35.727Z,47.24
2023-08-17T23:55:05.479Z,47.51
2023-08-17T23:57:34.270Z,47.78
